Timeline UpdatesTrip UpdatesNews PostsPvt PostsTravel TipsAdmin PostsConv PostsFollowed PostsChat RequestsBlog PostsPNR Posts

Disclaimer
Search
 
 
Fri Jul 25, 2014 16:49:38 ISTHomeTrainsΣChainsAtlasPNRForumGalleryNewsFAQTripsMembersLoginFeedback
No Recent News for this Train
Other Trains in the News **new
Latest...
Permanent Augmentation of 1 3A coach wef 13/4/14
Fri Apr 04, 2014 (07:11PM)
⇐ Return Journey: Train# 11057

11058/Amritsar - Mumbai LTT (Pathankot) Express

May 08 2014 (6:27PM)
Change Departure Station:
Change Arrival Station:
Post a Train Travel TipPost a Train Travel Tip **new
Post a Comment/Question/Picture/VideoPost a Comment/Question/Picture/Video
Pantry/Catering
✕ NO Pantry Car
✓ Catering Avbl
RSA - Rake Sharing
No RSA.
Rake/Coach Composition
LOCO-SLR-RMS-S1-S2-S3-S4-S5-S6-S7-S8-B1-B2-A1-MILITARY-GEN-GEN-LDS-[SLR-S10-S9-B3. ; [SLR-S10-S9-B2] -> Is the Slip portion OF Dhule and attached to the main train at Chalisgaon.
Loco
ASR-UMB --> TKD WDM3A/WDP3A UMB-LTT --> GZB WAP-1/4/5/7
News    PNR    Forum    Time-Table    Availability    Fare Chart    Map    Arr/Dep History    Trips    Gallery    ΣChains    X/O    Timeline    
Travel Time: 1h 5m    1 halts    Distance: 84 km    Avg Speed: 77 km/hr
Type: Mail/Express
Zone: CR/Central
Departs @ 22:30 (Avg 5m late)
Platform# ???
SMTWTFS
Palwal/PWL 
Arrives @ 23:35 (Avg 18m late)
Platform# 1
SMTWTFS
Mathura Junction/MTJ 

1 halts. 9 intermediate Stations between Palwal and Mathura Junction

Show ALL intermediate Stations  Show Old Time-Table

#CodeStation NameX/OArrivesAvgDepartsAvgHaltPFDay#KmSpeedElevZoneAddress
1ASRAmritsar Junction (5)  -08:30+441-560.377233mNRAmritsar 143002, Punjab
2JNLJandiala (2)  08:45+1508:47+152m21-541.168238mNRJandiala, Punjab
3BEASBeas Junction (2)  09:08+1309:10+132m21-517.361238mNRBeas, Punjab
4KREKartarpur (2)X  09:31+1209:33+112m11-495.873236mNRKartarpur, Punjab
5JUCJalandhar City Junction (5)X  09:45+1409:55+1310m21-481.218239mNRJalandhar 144001, Punjab
6JRCJalandhar Cantt. Junction (3)  10:11+610:13+62m21-476.470239mNRNear Rama Mandi, Punjab
7PGWPhagwara Junction (3)  10:27+710:29+72m11-460.154245mNRPhagwara, Punjab
8GRYGoraya (2)  10:40+810:42+82m11-450.264240mNRGoraya, Punjab
9PHRPhillaur Junction (3)X  10:54+810:56+82m11-437.533246mNRPhillaur, Punjab
10LDHLudhiana Junction (7)  11:20+311:30+1510m41-424.429246mNRLudhiana 141001, Punjab
11AHHAhmadgarh (1)X  12:23+812:25+102m11-399.079256mNRAhmedgarh, Punjab
12METMalerkotla (2)  12:40+1512:42+162m21-379.153248mNRMalerkotla., Punjab
13DUIDhuri Junction (4)  13:01+1813:05+194m--1-362.377248mNRDhuri, Punjab
14NBANabha (1)  13:26+2613:28+262m11-335.470250mNRNabha, Punjab
15PTAPatiala (4)X  13:50+3013:53+333m11-309.535256mNRPatiala, Punjab
16RPJRajpura Junction (3)O  14:35+1714:37+172m21-284.765272mNRNH-1, Punjab
17UBCAmbala City (3)XO  14:56+1414:58+142m11-264.221273mNRNH-1, Haryana
18UMBAmbala Cantt. Junction (7)XO15:20+815:50+030m11-256.663278mNRAmbala 133001, Haryana
19SHDMShahbad Markanda (2)  16:09+2016:11+202m11-236.763267mNRShahabad Markanda, Haryana
20KKDEKurukshetra Junction (3)X  16:32+1916:34+192m21-214.560260mNRKurukshetra, Haryana
21NLKRNilokheri  16:51+1716:53+172m--1-197.534254mNRNilokheri, Haryana
22TRRTaraori (2)X  17:00+1717:02+182m21-193.652255mNRTaraori, Haryana
23KUNKarnal (3)X  17:16+1617:18+162m11-181.566253mNRKarnal, Haryana
24GRAGharaunda (2)  17:34+1517:36+152m11-164.056244mNRGharaunda, Haryana
25PNPPanipat Junction (5)X  17:54+1317:56+132m21-147.060235mNRPanipat, Haryana
26SMKSamalkha (3)  18:13+1218:15+132m11-130.157229mNRSamalkha, Haryana
27GNUGanaur  18:28+1118:30+122m--1-117.860222mNRGanaur, Haryana
28SNPSonipat (3)  18:46+1418:48+142m11-101.948225mNRSonipat, Haryana
29RDDERathdhana (2)  19:01+1419:03+142m--1-91.550223mNRSonipat, Haryana
30NURNarela (2)  19:11+1419:13+152m--1-84.859222mNRNarela, Delhi NCT
31ANDIAdarsh Nagar (2)  19:30+1519:32+152m11-68.121214mNRShalimar Bagh, Delhi NCT
32SZMDelhi Sabzi Mandi (2)  19:51+1219:53+152m31-61.59220mNRGulabi Bagh, Delhi NCT
33NDLSNew Delhi (16)X  20:20+1020:50+830m41-57.434215mNRNew Delhi, Delhi NCT
34NZMDelhi Hazrat Nizamuddin (7)X  21:03+1421:05+222m41-50.057209mNRNizamuddin East/Sarai KaleKhan Bus Terminal, Delhi NCT
35FDBFaridabad (4)X  21:27+1421:29+182m31-29.237206mNRold Faridabad, Haryana
36BVHBallabgarh (5)O  21:42+1821:44+202m--1-21.229203mNRFaridabad, Haryana
37PWL»Palwal (8)»  22:28+322:30+52m--10.085200mNRPalwal, Haryana
38KSVKosi Kalan (3)  23:00+1423:02+152m2142.575189mNCRKosi Kalan, Uttar Pradesh
39MTJ•Mathura Junction (10)•  23:35+1823:40+205m1183.956179mNCRMathura, Uttar Pradesh
40RKMRaja Ki Mandi (4)X  00:33+2600:35+262m22133.612170mNCRAgra, Uttar Pradesh
41AGCAgra Cantt. (6)X  00:55+2201:05+2210m12137.688174mNCRAgra, Uttar Pradesh
42DHODholpur Junction (3)X  01:41+4601:43+492m22190.273177mNCRDholpur, Rajasthan
43MRAMorena (3)X  02:05+5102:07+512m12217.054176mNCRMorena, Madhya Pradesh
44GWLGwalior Junction (4)X  02:50+4902:58+478m12255.677214mNCRGwalior, Madhya Pradesh
45DBADabra (3)X  03:31+5503:33+552m22297.949204mNCRDabra(District-Gwalior), Madhya Pradesh
46SORSonagir (2)XO  03:56+5103:58+532m--2316.746211mNCRDatia, Madhya Pradesh
47DAADatia (2)X  04:13+5304:15+542m22328.343264mNCRDatia, Madhya Pradesh
48JHSJhansi Junction (7)X  04:50+5105:00+5610m52353.367259mNCRJhansi, Uttar Pradesh
49BABBabina (3)X  05:23+1:0405:25+1:052m12378.852285mNCRBabina, Uttar Pradesh
50BZYBasai (3)X  05:39+1:0605:41+1:092m12390.951287mNCR07522289600(Gate ManMob. - 9452701575), Madhya Pradesh
51TBTTalbahat (4)X  05:56+1:0805:58+1:112m12403.758314mNCRKhaniyadhana Station Rd, Madhya Pradesh
52LARLalitpur (3)  06:39+1:0106:41+1:022m22443.650373mNCRLalitpur, Uttar Pradesh
53JLNJakhalaun (3)  07:01+5807:03+1:012m22460.499394mNCRLalitpur(05176-272220), Uttar Pradesh
54DUADhaura (3)XO  07:10+1:0307:12+1:062m--2472.020407mNCRDhaura Tanda, Madhya Pradesh
55BINABina Junction (4)X  08:55+1509:00+175m32506.569414mWCRJn Pt - KATNI/GUNA/ BPL/JHS, Madhya Pradesh
56MABAMandi Bamora (3)X  09:15+2209:17+222m22523.878413mWCRState Highway 14, Madhya Pradesh
57BAQGanj Basoda (4)X  09:39+2409:41+242m22552.367416mWCRVidisha, Madhya Pradesh
58BHSVidisha (3)X  10:16+2710:18+272m22591.662432mWCRVidisha, Madhya Pradesh
59BPLBhopal Junction (6)X  11:10+3511:15+415m12645.138497mWCRBhopal, Madhya Pradesh
60HBJBhopal HabibGanj (5)  11:25+4411:27+442m42651.464496mWCRHabibGanj, Madhya Pradesh
61MDDPMandi Dip (1)  11:42+4611:44+462m12667.562449mWCRMandideep, Madhya Pradesh
62ODGObaidulla Ganj  11:57+4611:59+472m12681.054450mWCRObaidullaganj Raisen Dist., Madhya Pradesh
63BNIBudni (2)X  12:33+5312:35+532m12711.846311mWCRSehore 466445 Madhya pradesh, Madhya Pradesh
64HBDHoshangabad (2)  12:44+5412:46+542m22718.737308mWCRHoshangabad, Madhya Pradesh
65ETItarsi Junction (7)X  13:15+4913:20+555m22736.884329mWCRItarsi 461111, Madhya Pradesh
66BPFBanapura (2)  13:44+1:0113:46+1:012m22770.377314mWCRBanapura, Madhya Pradesh
67TBNTimarni (2)  14:08+1:0014:10+1:002m12798.561308mWCRTimarni, Madhya Pradesh
68HDHarda (3)  14:24+5814:26+582m12812.676289mWCRHarda, Madhya Pradesh
69KKNKhirkiya (2)  14:51+5514:53+552m12844.280281mWCRSH 15, Madhya Pradesh
70CAERChhanera (2)  15:16+5415:18+542m22874.951283mWCRChhanera, Madhya Pradesh
71TLVTalvadiya (2)X  15:53+3915:55+392m22904.521308mWCRKhandwa, Madhya Pradesh
72KNWKhandwa Junction (5)X  16:40+2316:45+245m32920.378310mCRKhandwa, Madhya Pradesh
73NPNRNepanagar (2)X  17:18+2717:20+272m--2962.968289mCRState Highway 27, Madhya Pradesh
74BAUBurhanpur (2)  17:43+3117:45+322m12989.193269mCRBurhanpur, Madhya Pradesh
75RVRaver (2)X  17:58+3718:00+372m--21009.376242mCRJalgaon, Maharashtra
76NBNimbhoraX  18:08+3918:10+392m121019.565229mCRJalgaon, Maharashtra
77SAVSavda (2)X  18:18+4018:20+392m221028.237220mCRSavda, Maharashtra
78BSLBhusaval Junction (8)X  18:45+3318:55+3610m421043.663208mCRBhusaval 425201, Maharashtra
79JLJalgaon Junction (4)X  19:18+4319:20+442m221067.787213mCRJalgaon 425001, Maharashtra
80PCPachora Junction (4)XO  19:53+4919:55+502m--21115.441264mCRPachora 424201, Maharashtra
81CSNChalisgaon Junction (3)X  21:00+2721:05+465m--21160.3101352mCRChalisgaon 424101, Maharashtra
82MMRManmad Junction (6)XO  21:45+1:0421:50+1:055m321227.867580mCRManmad 423104, Maharashtra
83NKNasik Road (3)  22:55+5223:00+515m321300.643563mCRNashik 422101, Maharashtra
84DVLDevlali (3)XO  23:08+5523:10+552m221306.330561mCRDist. Nashik 422401, Maharashtra
85IGPIgatpuri (4)X  00:40+1400:45+215m331351.243589mCRIgatpuri 422403, Maharashtra
86KYNKalyan Junction (8)  02:40+3602:45+335m631433.06710mCRKalyan 421301, Maharashtra
87TNAThane (10)  03:03+2703:05+262m831453.22210mCRThane, Maharashtra
88LTTMumbai Lokmanya Tilak Terminus (5)  03:50+21---31469.7-7mCRMumbai, Maharashtra
Scroll to Top
Scroll to Bottom